sensor_id;sensor_type;location;lat;lon;timestamp;temperature;humidity
1680;DHT22;838;51.794;12.258;2023-08-31T00:00:34;16.60;60.10
1680;DHT22;838;51.794;12.258;2023-08-31T00:03:01;16.60;58.60
1680;DHT22;838;51.794;12.258;2023-08-31T00:05:27;16.50;57.70
1680;DHT22;838;51.794;12.258;2023-08-31T00:07:55;16.50;58.90
1680;DHT22;838;51.794;12.258;2023-08-31T00:10:21;16.50;59.00
1680;DHT22;838;51.794;12.258;2023-08-31T00:12:47;16.70;57.60
1680;DHT22;838;51.794;12.258;2023-08-31T00:15:14;16.70;57.30
1680;DHT22;838;51.794;12.258;2023-08-31T00:17:40;16.70;56.80
1680;DHT22;838;51.794;12.258;2023-08-31T00:20:08;16.80;56.70
1680;DHT22;838;51.794;12.258;2023-08-31T00:22:38;16.70;55.80
1680;DHT22;838;51.794;12.258;2023-08-31T00:25:04;16.70;57.40
1680;DHT22;838;51.794;12.258;2023-08-31T00:27:34;16.70;56.20
1680;DHT22;838;51.794;12.258;2023-08-31T00:29:59;16.60;57.10
1680;DHT22;838;51.794;12.258;2023-08-31T00:32:25;16.50;58.50
1680;DHT22;838;51.794;12.258;2023-08-31T00:34:51;16.70;57.00
1680;DHT22;838;51.794;12.258;2023-08-31T00:37:17;16.70;56.00
1680;DHT22;838;51.794;12.258;2023-08-31T00:39:42;16.80;54.20
1680;DHT22;838;51.794;12.258;2023-08-31T00:42:09;16.70;56.20
1680;DHT22;838;51.794;12.258;2023-08-31T00:44:35;16.80;53.40
1680;DHT22;838;51.794;12.258;2023-08-31T00:47:01;16.70;54.40
1680;DHT22;838;51.794;12.258;2023-08-31T00:49:28;16.70;55.30
1680;DHT22;838;51.794;12.258;2023-08-31T00:51:54;16.80;53.70
1680;DHT22;838;51.794;12.258;2023-08-31T00:54:23;16.90;53.40
1680;DHT22;838;51.794;12.258;2023-08-31T00:56:53;16.90;51.70
1680;DHT22;838;51.794;12.258;2023-08-31T00:59:19;16.90;51.40
1680;DHT22;838;51.794;12.258;2023-08-31T01:12:50;16.60;53.40
1680;DHT22;838;51.794;12.258;2023-08-31T01:15:18;16.70;54.30
1680;DHT22;838;51.794;12.258;2023-08-31T01:17:49;16.80;52.80
1680;DHT22;838;51.794;12.258;2023-08-31T01:20:19;16.90;51.40
1680;DHT22;838;51.794;12.258;2023-08-31T01:22:57;16.90;51.20
1680;DHT22;838;51.794;12.258;2023-08-31T01:25:24;16.80;53.00
1680;DHT22;838;51.794;12.258;2023-08-31T01:27:51;16.90;51.50
1680;DHT22;838;51.794;12.258;2023-08-31T01:30:17;17.10;49.70
1680;DHT22;838;51.794;12.258;2023-08-31T01:32:46;17.20;47.50
1680;DHT22;838;51.794;12.258;2023-08-31T01:35:15;17.20;47.60
1680;DHT22;838;51.794;12.258;2023-08-31T01:37:54;17.30;45.80
1680;DHT22;838;51.794;12.258;2023-08-31T01:43:00;17.30;46.20
1680;DHT22;838;51.794;12.258;2023-08-31T01:45:26;17.40;45.40
1680;DHT22;838;51.794;12.258;2023-08-31T01:47:52;17.40;45.90
1680;DHT22;838;51.794;12.258;2023-08-31T01:50:18;17.50;44.80
1680;DHT22;838;51.794;12.258;2023-08-31T01:52:44;17.50;44.50
1680;DHT22;838;51.794;12.258;2023-08-31T01:55:10;17.50;45.10
1680;DHT22;838;51.794;12.258;2023-08-31T01:57:36;17.50;45.50
1680;DHT22;838;51.794;12.258;2023-08-31T02:00:01;17.60;44.20
1680;DHT22;838;51.794;12.258;2023-08-31T02:02:28;17.70;43.20
1680;DHT22;838;51.794;12.258;2023-08-31T02:04:54;17.80;42.70
1680;DHT22;838;51.794;12.258;2023-08-31T02:07:20;17.50;43.30
1680;DHT22;838;51.794;12.258;2023-08-31T02:09:45;17.10;47.70
1680;DHT22;838;51.794;12.258;2023-08-31T02:12:11;16.70;52.20
1680;DHT22;838;51.794;12.258;2023-08-31T02:14:37;16.40;55.10
1680;DHT22;838;51.794;12.258;2023-08-31T02:17:03;16.30;57.80
1680;DHT22;838;51.794;12.258;2023-08-31T02:19:29;16.40;57.40
1680;DHT22;838;51.794;12.258;2023-08-31T02:21:55;16.50;55.40
1680;DHT22;838;51.794;12.258;2023-08-31T02:24:21;16.50;55.70
1680;DHT22;838;51.794;12.258;2023-08-31T02:26:48;16.50;54.50
1680;DHT22;838;51.794;12.258;2023-08-31T02:29:13;16.60;55.00
1680;DHT22;838;51.794;12.258;2023-08-31T02:31:39;16.60;53.80
1680;DHT22;838;51.794;12.258;2023-08-31T02:34:07;16.50;55.70
1680;DHT22;838;51.794;12.258;2023-08-31T02:36:38;16.50;55.90
1680;DHT22;838;51.794;12.258;2023-08-31T02:39:03;16.40;55.50
1680;DHT22;838;51.794;12.258;2023-08-31T02:41:29;16.40;56.30
1680;DHT22;838;51.794;12.258;2023-08-31T02:43:56;16.40;55.90
1680;DHT22;838;51.794;12.258;2023-08-31T02:46:21;16.50;56.10
1680;DHT22;838;51.794;12.258;2023-08-31T02:48:48;16.50;56.10
1680;DHT22;838;51.794;12.258;2023-08-31T02:51:14;16.40;55.70
1680;DHT22;838;51.794;12.258;2023-08-31T02:53:39;16.30;57.50
1680;DHT22;838;51.794;12.258;2023-08-31T02:56:05;16.30;58.20
1680;DHT22;838;51.794;12.258;2023-08-31T02:58:31;16.20;58.40
1680;DHT22;838;51.794;12.258;2023-08-31T03:01:09;16.10;59.10
1680;DHT22;838;51.794;12.258;2023-08-31T03:03:39;16.10;58.90
1680;DHT22;838;51.794;12.258;2023-08-31T03:06:08;16.00;60.10
1680;DHT22;838;51.794;12.258;2023-08-31T03:08:35;15.90;61.50
1680;DHT22;838;51.794;12.258;2023-08-31T03:11:03;15.80;61.90
1680;DHT22;838;51.794;12.258;2023-08-31T03:13:28;15.80;61.40
1680;DHT22;838;51.794;12.258;2023-08-31T03:15:54;15.70;61.80
1680;DHT22;838;51.794;12.258;2023-08-31T03:18:22;15.70;63.20
1680;DHT22;838;51.794;12.258;2023-08-31T03:20:48;15.60;63.90
1680;DHT22;838;51.794;12.258;2023-08-31T03:23:13;15.60;64.90
1680;DHT22;838;51.794;12.258;2023-08-31T03:25:39;15.60;66.00
1680;DHT22;838;51.794;12.258;2023-08-31T03:28:05;15.60;66.10
1680;DHT22;838;51.794;12.258;2023-08-31T03:30:31;15.60;65.90
1680;DHT22;838;51.794;12.258;2023-08-31T03:32:57;15.40;67.60
1680;DHT22;838;51.794;12.258;2023-08-31T03:35:22;15.50;69.10
1680;DHT22;838;51.794;12.258;2023-08-31T03:37:52;15.40;68.70
1680;DHT22;838;51.794;12.258;2023-08-31T03:40:19;15.40;69.70
1680;DHT22;838;51.794;12.258;2023-08-31T03:42:45;15.40;69.90
1680;DHT22;838;51.794;12.258;2023-08-31T03:45:11;15.50;69.40
1680;DHT22;838;51.794;12.258;2023-08-31T03:47:36;15.60;68.10
1680;DHT22;838;51.794;12.258;2023-08-31T03:50:02;15.60;68.00
1680;DHT22;838;51.794;12.258;2023-08-31T03:52:28;15.60;67.90
1680;DHT22;838;51.794;12.258;2023-08-31T03:54:54;15.60;66.80
1680;DHT22;838;51.794;12.258;2023-08-31T03:57:19;15.50;67.30
1680;DHT22;838;51.794;12.258;2023-08-31T03:59:45;15.40;67.10
1680;DHT22;838;51.794;12.258;2023-08-31T04:02:11;15.40;69.40
1680;DHT22;838;51.794;12.258;2023-08-31T04:04:37;15.60;68.00
1680;DHT22;838;51.794;12.258;2023-08-31T04:07:03;15.60;67.30
1680;DHT22;838;51.794;12.258;2023-08-31T04:09:29;15.60;66.20
1680;DHT22;838;51.794;12.258;2023-08-31T04:11:55;15.70;67.10
1680;DHT22;838;51.794;12.258;2023-08-31T04:14:21;15.80;65.70
1680;DHT22;838;51.794;12.258;2023-08-31T04:16:47;15.90;63.90
1680;DHT22;838;51.794;12.258;2023-08-31T04:19:16;15.90;62.30
1680;DHT22;838;51.794;12.258;2023-08-31T04:21:42;15.90;63.30
1680;DHT22;838;51.794;12.258;2023-08-31T04:24:08;15.90;63.90
1680;DHT22;838;51.794;12.258;2023-08-31T04:26:34;16.00;62.10
1680;DHT22;838;51.794;12.258;2023-08-31T04:29:01;16.10;60.60
1680;DHT22;838;51.794;12.258;2023-08-31T04:31:26;16.10;60.00
1680;DHT22;838;51.794;12.258;2023-08-31T04:33:52;16.10;58.60
1680;DHT22;838;51.794;12.258;2023-08-31T04:36:21;16.20;58.20
1680;DHT22;838;51.794;12.258;2023-08-31T04:38:48;16.20;58.70
1680;DHT22;838;51.794;12.258;2023-08-31T04:41:15;16.00;59.10
1680;DHT22;838;51.794;12.258;2023-08-31T04:43:40;16.10;60.80
1680;DHT22;838;51.794;12.258;2023-08-31T04:46:06;16.20;59.60
1680;DHT22;838;51.794;12.258;2023-08-31T04:48:32;16.20;58.90
1680;DHT22;838;51.794;12.258;2023-08-31T04:50:58;16.30;57.60
1680;DHT22;838;51.794;12.258;2023-08-31T04:53:24;16.20;57.90
1680;DHT22;838;51.794;12.258;2023-08-31T04:55:51;16.30;57.30
1680;DHT22;838;51.794;12.258;2023-08-31T04:58:17;16.30;55.60
1680;DHT22;838;51.794;12.258;2023-08-31T05:00:42;16.20;57.50
1680;DHT22;838;51.794;12.258;2023-08-31T05:03:10;16.20;57.70
1680;DHT22;838;51.794;12.258;2023-08-31T05:05:35;16.20;57.90
1680;DHT22;838;51.794;12.258;2023-08-31T05:08:02;16.20;57.90
1680;DHT22;838;51.794;12.258;2023-08-31T05:10:29;16.20;56.90
1680;DHT22;838;51.794;12.258;2023-08-31T05:12:54;16.10;58.00
1680;DHT22;838;51.794;12.258;2023-08-31T05:15:20;16.00;59.20
1680;DHT22;838;51.794;12.258;2023-08-31T05:17:46;16.00;59.70
1680;DHT22;838;51.794;12.258;2023-08-31T05:20:13;15.90;59.30
1680;DHT22;838;51.794;12.258;2023-08-31T05:22:38;15.90;61.30
1680;DHT22;838;51.794;12.258;2023-08-31T05:25:04;16.00;61.00
1680;DHT22;838;51.794;12.258;2023-08-31T05:27:30;16.10;56.70
1680;DHT22;838;51.794;12.258;2023-08-31T05:29:56;16.20;56.80
1680;DHT22;838;51.794;12.258;2023-08-31T05:32:22;16.20;55.60
1680;DHT22;838;51.794;12.258;2023-08-31T05:34:49;16.20;57.30
1680;DHT22;838;51.794;12.258;2023-08-31T05:37:14;16.20;57.40
1680;DHT22;838;51.794;12.258;2023-08-31T05:39:40;16.10;56.00
1680;DHT22;838;51.794;12.258;2023-08-31T05:42:06;16.00;56.40
1680;DHT22;838;51.794;12.258;2023-08-31T05:44:31;15.90;57.00
1680;DHT22;838;51.794;12.258;2023-08-31T05:46:57;15.80;59.30
1680;DHT22;838;51.794;12.258;2023-08-31T05:49:23;15.80;58.80
1680;DHT22;838;51.794;12.258;2023-08-31T05:51:49;15.70;58.30
1680;DHT22;838;51.794;12.258;2023-08-31T05:54:16;15.80;58.10
1680;DHT22;838;51.794;12.258;2023-08-31T05:56:41;15.70;57.90
1680;DHT22;838;51.794;12.258;2023-08-31T05:59:07;15.70;58.40
1680;DHT22;838;51.794;12.258;2023-08-31T06:01:35;15.70;58.50
1680;DHT22;838;51.794;12.258;2023-08-31T06:04:04;15.70;59.00
1680;DHT22;838;51.794;12.258;2023-08-31T06:06:31;16.10;58.10
1680;DHT22;838;51.794;12.258;2023-08-31T06:08:58;16.60;52.30
1680;DHT22;838;51.794;12.258;2023-08-31T06:11:23;17.20;47.90
1680;DHT22;838;51.794;12.258;2023-08-31T06:13:49;17.90;42.30
1680;DHT22;838;51.794;12.258;2023-08-31T06:16:15;18.60;33.90
1680;DHT22;838;51.794;12.258;2023-08-31T06:18:40;18.90;32.40
1680;DHT22;838;51.794;12.258;2023-08-31T06:21:06;19.20;30.20
1680;DHT22;838;51.794;12.258;2023-08-31T06:23:32;19.60;27.80
1680;DHT22;838;51.794;12.258;2023-08-31T06:25:57;19.80;21.80
1680;DHT22;838;51.794;12.258;2023-08-31T06:28:23;19.70;22.40
1680;DHT22;838;51.794;12.258;2023-08-31T06:30:49;19.40;22.00
1680;DHT22;838;51.794;12.258;2023-08-31T06:33:15;19.30;23.70
1680;DHT22;838;51.794;12.258;2023-08-31T06:35:41;19.00;24.20
1680;DHT22;838;51.794;12.258;2023-08-31T06:38:06;18.90;24.20
1680;DHT22;838;51.794;12.258;2023-08-31T06:40:32;18.40;24.40
1680;DHT22;838;51.794;12.258;2023-08-31T06:42:58;18.10;26.40
1680;DHT22;838;51.794;12.258;2023-08-31T06:45:25;18.00;27.20
1680;DHT22;838;51.794;12.258;2023-08-31T06:47:50;17.80;29.90
1680;DHT22;838;51.794;12.258;2023-08-31T06:50:16;17.60;30.20
1680;DHT22;838;51.794;12.258;2023-08-31T06:52:42;17.40;32.00
1680;DHT22;838;51.794;12.258;2023-08-31T06:55:09;17.20;35.70
1680;DHT22;838;51.794;12.258;2023-08-31T06:57:36;17.10;38.40
1680;DHT22;838;51.794;12.258;2023-08-31T07:00:03;17.20;38.30
1680;DHT22;838;51.794;12.258;2023-08-31T07:02:29;17.20;38.70
1680;DHT22;838;51.794;12.258;2023-08-31T07:04:55;17.20;40.20
1680;DHT22;838;51.794;12.258;2023-08-31T07:07:20;17.30;39.90
1680;DHT22;838;51.794;12.258;2023-08-31T07:09:47;17.30;37.80
1680;DHT22;838;51.794;12.258;2023-08-31T07:12:16;17.40;36.50
1680;DHT22;838;51.794;12.258;2023-08-31T07:14:41;17.50;34.60
1680;DHT22;838;51.794;12.258;2023-08-31T07:17:07;17.40;34.80
1680;DHT22;838;51.794;12.258;2023-08-31T07:19:36;17.60;32.20
1680;DHT22;838;51.794;12.258;2023-08-31T07:22:02;17.60;28.30
1680;DHT22;838;51.794;12.258;2023-08-31T07:24:29;17.80;30.00
1680;DHT22;838;51.794;12.258;2023-08-31T07:26:55;17.80;27.70
1680;DHT22;838;51.794;12.258;2023-08-31T07:29:21;17.90;29.10
1680;DHT22;838;51.794;12.258;2023-08-31T07:31:47;17.90;26.40
1680;DHT22;838;51.794;12.258;2023-08-31T07:34:13;18.00;26.30
1680;DHT22;838;51.794;12.258;2023-08-31T07:36:38;18.30;25.50
1680;DHT22;838;51.794;12.258;2023-08-31T07:39:05;18.20;22.60
1680;DHT22;838;51.794;12.258;2023-08-31T07:41:30;18.20;21.50
1680;DHT22;838;51.794;12.258;2023-08-31T07:43:56;17.90;24.00
1680;DHT22;838;51.794;12.258;2023-08-31T07:46:22;18.00;24.20
1680;DHT22;838;51.794;12.258;2023-08-31T07:48:47;18.20;20.30
1680;DHT22;838;51.794;12.258;2023-08-31T07:51:15;18.30;21.00
1680;DHT22;838;51.794;12.258;2023-08-31T07:53:41;18.20;18.80
1680;DHT22;838;51.794;12.258;2023-08-31T07:56:07;18.10;17.70
1680;DHT22;838;51.794;12.258;2023-08-31T07:58:32;17.90;18.20
1680;DHT22;838;51.794;12.258;2023-08-31T08:00:58;18.00;20.30
1680;DHT22;838;51.794;12.258;2023-08-31T08:03:24;18.20;18.20
1680;DHT22;838;51.794;12.258;2023-08-31T08:05:50;18.50;17.60
1680;DHT22;838;51.794;12.258;2023-08-31T08:08:16;18.90;15.90
1680;DHT22;838;51.794;12.258;2023-08-31T08:10:42;19.10;10.80
1680;DHT22;838;51.794;12.258;2023-08-31T08:13:09;18.80;7.60
1680;DHT22;838;51.794;12.258;2023-08-31T08:15:35;18.90;4.00
1680;DHT22;838;51.794;12.258;2023-08-31T08:18:00;19.00;1.00
1680;DHT22;838;51.794;12.258;2023-08-31T08:20:27;18.70;1.60
1680;DHT22;838;51.794;12.258;2023-08-31T08:22:53;18.60;1.00
1680;DHT22;838;51.794;12.258;2023-08-31T08:25:19;18.50;1.00
1680;DHT22;838;51.794;12.258;2023-08-31T08:27:46;18.50;1.00
1680;DHT22;838;51.794;12.258;2023-08-31T08:30:12;18.50;1.60
1680;DHT22;838;51.794;12.258;2023-08-31T08:32:37;18.70;2.10
1680;DHT22;838;51.794;12.258;2023-08-31T08:35:03;18.70;5.80
1680;DHT22;838;51.794;12.258;2023-08-31T08:37:30;18.70;7.20
1680;DHT22;838;51.794;12.258;2023-08-31T08:39:58;18.90;7.80
1680;DHT22;838;51.794;12.258;2023-08-31T08:42:25;18.90;5.90
1680;DHT22;838;51.794;12.258;2023-08-31T08:44:51;18.90;5.80
1680;DHT22;838;51.794;12.258;2023-08-31T08:47:20;18.90;4.20
1680;DHT22;838;51.794;12.258;2023-08-31T08:49:47;18.80;4.40
1680;DHT22;838;51.794;12.258;2023-08-31T08:52:15;18.90;4.10
1680;DHT22;838;51.794;12.258;2023-08-31T08:54:41;19.30;4.10
1680;DHT22;838;51.794;12.258;2023-08-31T08:57:07;19.30;1.00
1680;DHT22;838;51.794;12.258;2023-08-31T08:59:33;19.70;1.00
1680;DHT22;838;51.794;12.258;2023-08-31T09:01:59;19.80;1.00
1680;DHT22;838;51.794;12.258;2023-08-31T09:04:24;19.70;1.00
1680;DHT22;838;51.794;12.258;2023-08-31T09:06:51;19.40;1.00
1680;DHT22;838;51.794;12.258;2023-08-31T09:09:17;19.20;1.10
1680;DHT22;838;51.794;12.258;2023-08-31T09:11:43;19.20;1.70
1680;DHT22;838;51.794;12.258;2023-08-31T09:14:15;19.30;1.00
1680;DHT22;838;51.794;12.258;2023-08-31T09:16:44;19.60;1.00
1680;DHT22;838;51.794;12.258;2023-08-31T09:19:24;19.90;1.00
1680;DHT22;838;51.794;12.258;2023-08-31T09:21:51;20.10;1.00
1680;DHT22;838;51.794;12.258;2023-08-31T09:24:18;20.30;1.00
1680;DHT22;838;51.794;12.258;2023-08-31T09:26:48;20.70;1.00
1680;DHT22;838;51.794;12.258;2023-08-31T09:29:14;22.10;1.00
1680;DHT22;838;51.794;12.258;2023-08-31T09:31:44;24.00;1.00
1680;DHT22;838;51.794;12.258;2023-08-31T09:34:10;25.90;1.00
1680;DHT22;838;51.794;12.258;2023-08-31T09:36:37;26.60;1.00
1680;DHT22;838;51.794;12.258;2023-08-31T09:39:05;26.10;1.00
1680;DHT22;838;51.794;12.258;2023-08-31T09:41:30;25.20;1.00
1680;DHT22;838;51.794;12.258;2023-08-31T09:43:57;24.10;1.00
1680;DHT22;838;51.794;12.258;2023-08-31T09:46:39;24.10;1.00
1680;DHT22;838;51.794;12.258;2023-08-31T09:49:06;23.30;1.00
1680;DHT22;838;51.794;12.258;2023-08-31T09:51:32;21.90;1.00
1680;DHT22;838;51.794;12.258;2023-08-31T09:54:00;20.90;1.00
1680;DHT22;838;51.794;12.258;2023-08-31T09:56:33;20.90;1.00
1680;DHT22;838;51.794;12.258;2023-08-31T09:58:59;21.00;1.00
1680;DHT22;838;51.794;12.258;2023-08-31T10:01:25;21.20;1.00
1680;DHT22;838;51.794;12.258;2023-08-31T10:03:51;21.10;1.00
1680;DHT22;838;51.794;12.258;2023-08-31T10:06:18;21.10;1.00
1680;DHT22;838;51.794;12.258;2023-08-31T10:08:45;20.60;1.00
1680;DHT22;838;51.794;12.258;2023-08-31T10:11:10;20.20;1.00
1680;DHT22;838;51.794;12.258;2023-08-31T10:13:41;19.90;1.00
1680;DHT22;838;51.794;12.258;2023-08-31T10:16:07;19.70;1.00
1680;DHT22;838;51.794;12.258;2023-08-31T10:18:34;19.50;1.50
1680;DHT22;838;51.794;12.258;2023-08-31T10:21:01;19.40;5.40
1680;DHT22;838;51.794;12.258;2023-08-31T10:23:28;19.40;6.20
1680;DHT22;838;51.794;12.258;2023-08-31T10:28:21;19.50;6.70
1680;DHT22;838;51.794;12.258;2023-08-31T10:31:07;19.90;1.60
1680;DHT22;838;51.794;12.258;2023-08-31T10:33:54;20.00;3.30
1680;DHT22;838;51.794;12.258;2023-08-31T10:36:20;19.30;1.00
1680;DHT22;838;51.794;12.258;2023-08-31T10:41:24;18.20;2.70
1680;DHT22;838;51.794;12.258;2023-08-31T10:43:53;18.00;1.70
1680;DHT22;838;51.794;12.258;2023-08-31T10:46:26;17.80;5.20
1680;DHT22;838;51.794;12.258;2023-08-31T10:48:53;18.00;5.00
1680;DHT22;838;51.794;12.258;2023-08-31T10:51:22;18.20;2.30
1680;DHT22;838;51.794;12.258;2023-08-31T10:53:48;18.40;1.90
1680;DHT22;838;51.794;12.258;2023-08-31T10:56:16;18.60;1.90
1680;DHT22;838;51.794;12.258;2023-08-31T10:58:42;18.90;1.50
1680;DHT22;838;51.794;12.258;2023-08-31T11:01:10;19.10;1.00
1680;DHT22;838;51.794;12.258;2023-08-31T11:03:57;19.50;1.00
1680;DHT22;838;51.794;12.258;2023-08-31T11:06:23;20.10;1.00
1680;DHT22;838;51.794;12.258;2023-08-31T11:08:50;20.20;1.00
1680;DHT22;838;51.794;12.258;2023-08-31T11:11:19;20.40;1.00
1680;DHT22;838;51.794;12.258;2023-08-31T11:13:45;20.40;1.00
1680;DHT22;838;51.794;12.258;2023-08-31T11:16:11;20.50;1.00
1680;DHT22;838;51.794;12.258;2023-08-31T11:18:37;20.60;1.00
1680;DHT22;838;51.794;12.258;2023-08-31T11:21:03;20.60;1.00
1680;DHT22;838;51.794;12.258;2023-08-31T11:23:31;20.70;1.00
1680;DHT22;838;51.794;12.258;2023-08-31T11:25:57;20.80;1.00
1680;DHT22;838;51.794;12.258;2023-08-31T11:28:22;20.70;1.00
1680;DHT22;838;51.794;12.258;2023-08-31T11:30:48;20.40;1.00
1680;DHT22;838;51.794;12.258;2023-08-31T11:33:14;20.40;1.00
1680;DHT22;838;51.794;12.258;2023-08-31T11:35:43;20.50;1.00
1680;DHT22;838;51.794;12.258;2023-08-31T11:38:10;20.70;1.00
1680;DHT22;838;51.794;12.258;2023-08-31T11:40:36;21.10;1.00
1680;DHT22;838;51.794;12.258;2023-08-31T11:43:04;21.40;1.00
1680;DHT22;838;51.794;12.258;2023-08-31T11:45:30;21.40;1.00
1680;DHT22;838;51.794;12.258;2023-08-31T11:47:57;21.70;1.00
1680;DHT22;838;51.794;12.258;2023-08-31T11:50:24;21.90;1.00
1680;DHT22;838;51.794;12.258;2023-08-31T11:52:51;22.10;1.00
1680;DHT22;838;51.794;12.258;2023-08-31T11:55:18;22.10;1.00
1680;DHT22;838;51.794;12.258;2023-08-31T11:57:51;21.80;1.00
1680;DHT22;838;51.794;12.258;2023-08-31T12:00:18;21.70;1.00
1680;DHT22;838;51.794;12.258;2023-08-31T12:03:02;21.80;1.00
1680;DHT22;838;51.794;12.258;2023-08-31T12:05:48;21.60;1.00
1680;DHT22;838;51.794;12.258;2023-08-31T12:08:15;21.50;1.00
1680;DHT22;838;51.794;12.258;2023-08-31T12:10:44;21.40;1.00
1680;DHT22;838;51.794;12.258;2023-08-31T12:13:11;21.40;1.00
1680;DHT22;838;51.794;12.258;2023-08-31T12:15:38;21.30;1.00
1680;DHT22;838;51.794;12.258;2023-08-31T12:18:11;21.40;1.00
1680;DHT22;838;51.794;12.258;2023-08-31T12:20:48;21.50;1.00
1680;DHT22;838;51.794;12.258;2023-08-31T12:23:16;21.60;1.00
1680;DHT22;838;51.794;12.258;2023-08-31T12:25:50;21.70;1.00
1680;DHT22;838;51.794;12.258;2023-08-31T12:28:19;21.80;1.00
1680;DHT22;838;51.794;12.258;2023-08-31T12:30:50;21.80;1.00
1680;DHT22;838;51.794;12.258;2023-08-31T12:33:17;21.70;1.00
1680;DHT22;838;51.794;12.258;2023-08-31T12:35:43;21.60;1.00
1680;DHT22;838;51.794;12.258;2023-08-31T12:38:09;21.50;1.00
1680;DHT22;838;51.794;12.258;2023-08-31T12:40:34;21.40;1.00
1680;DHT22;838;51.794;12.258;2023-08-31T12:43:00;21.70;1.00
1680;DHT22;838;51.794;12.258;2023-08-31T12:45:26;21.90;1.00
1680;DHT22;838;51.794;12.258;2023-08-31T12:47:51;21.70;1.00
1680;DHT22;838;51.794;12.258;2023-08-31T12:50:17;21.40;1.00
1680;DHT22;838;51.794;12.258;2023-08-31T12:52:43;21.30;1.00
1680;DHT22;838;51.794;12.258;2023-08-31T12:55:13;21.20;1.00
1680;DHT22;838;51.794;12.258;2023-08-31T12:57:38;21.40;1.00
1680;DHT22;838;51.794;12.258;2023-08-31T13:00:05;21.20;1.00
1680;DHT22;838;51.794;12.258;2023-08-31T13:02:31;21.10;1.00
1680;DHT22;838;51.794;12.258;2023-08-31T13:04:56;20.80;1.00
1680;DHT22;838;51.794;12.258;2023-08-31T13:07:22;20.60;1.00
1680;DHT22;838;51.794;12.258;2023-08-31T13:09:47;20.50;1.00
1680;DHT22;838;51.794;12.258;2023-08-31T13:12:13;20.20;1.00
1680;DHT22;838;51.794;12.258;2023-08-31T13:14:39;20.20;1.00
1680;DHT22;838;51.794;12.258;2023-08-31T13:17:04;19.40;1.00
1680;DHT22;838;51.794;12.258;2023-08-31T13:19:31;18.00;4.80
1680;DHT22;838;51.794;12.258;2023-08-31T13:21:57;17.00;15.20
1680;DHT22;838;51.794;12.258;2023-08-31T13:24:23;16.50;25.10
1680;DHT22;838;51.794;12.258;2023-08-31T13:26:50;16.20;29.80
1680;DHT22;838;51.794;12.258;2023-08-31T13:29:15;15.90;37.60
1680;DHT22;838;51.794;12.258;2023-08-31T13:31:42;15.80;38.50
1680;DHT22;838;51.794;12.258;2023-08-31T13:34:07;15.70;38.90
1680;DHT22;838;51.794;12.258;2023-08-31T13:36:34;15.70;41.20
1680;DHT22;838;51.794;12.258;2023-08-31T13:39:00;15.70;43.70
1680;DHT22;838;51.794;12.258;2023-08-31T13:41:25;15.70;44.20
1680;DHT22;838;51.794;12.258;2023-08-31T13:43:51;15.80;43.00
1680;DHT22;838;51.794;12.258;2023-08-31T13:46:17;16.00;46.70
1680;DHT22;838;51.794;12.258;2023-08-31T13:48:43;16.10;44.20
1680;DHT22;838;51.794;12.258;2023-08-31T13:51:09;16.20;45.30
1680;DHT22;838;51.794;12.258;2023-08-31T13:53:35;16.30;46.20
1680;DHT22;838;51.794;12.258;2023-08-31T13:56:01;16.60;44.80
1680;DHT22;838;51.794;12.258;2023-08-31T13:58:27;16.90;44.20
1680;DHT22;838;51.794;12.258;2023-08-31T14:00:52;17.20;39.40
1680;DHT22;838;51.794;12.258;2023-08-31T14:03:18;17.50;39.60
1680;DHT22;838;51.794;12.258;2023-08-31T14:05:48;17.80;36.00
1680;DHT22;838;51.794;12.258;2023-08-31T14:08:15;17.70;27.30
1680;DHT22;838;51.794;12.258;2023-08-31T14:10:40;17.70;26.00
1680;DHT22;838;51.794;12.258;2023-08-31T14:13:06;17.40;21.70
1680;DHT22;838;51.794;12.258;2023-08-31T14:15:32;17.40;23.90
1680;DHT22;838;51.794;12.258;2023-08-31T14:17:58;17.50;24.60
1680;DHT22;838;51.794;12.258;2023-08-31T14:20:24;17.70;24.80
1680;DHT22;838;51.794;12.258;2023-08-31T14:22:50;17.90;23.30
1680;DHT22;838;51.794;12.258;2023-08-31T14:25:16;17.90;19.00
1680;DHT22;838;51.794;12.258;2023-08-31T14:27:42;17.80;20.10
1680;DHT22;838;51.794;12.258;2023-08-31T14:30:09;17.90;21.50
1680;DHT22;838;51.794;12.258;2023-08-31T14:32:34;18.00;19.60
1680;DHT22;838;51.794;12.258;2023-08-31T14:35:00;18.20;21.00
1680;DHT22;838;51.794;12.258;2023-08-31T14:37:26;18.30;20.90
1680;DHT22;838;51.794;12.258;2023-08-31T14:39:52;18.40;17.80
1680;DHT22;838;51.794;12.258;2023-08-31T14:42:17;18.40;16.50
1680;DHT22;838;51.794;12.258;2023-08-31T14:44:46;18.30;16.10
1680;DHT22;838;51.794;12.258;2023-08-31T14:47:12;18.40;16.00
1680;DHT22;838;51.794;12.258;2023-08-31T14:49:41;18.40;13.40
1680;DHT22;838;51.794;12.258;2023-08-31T14:52:07;18.40;9.90
1680;DHT22;838;51.794;12.258;2023-08-31T14:54:35;18.40;11.10
1680;DHT22;838;51.794;12.258;2023-08-31T14:57:01;18.70;12.10
1680;DHT22;838;51.794;12.258;2023-08-31T14:59:29;18.70;10.60
1680;DHT22;838;51.794;12.258;2023-08-31T15:01:55;18.90;9.90
1680;DHT22;838;51.794;12.258;2023-08-31T15:04:20;19.30;7.40
1680;DHT22;838;51.794;12.258;2023-08-31T15:06:46;19.50;4.80
1680;DHT22;838;51.794;12.258;2023-08-31T15:09:12;19.40;5.30
1680;DHT22;838;51.794;12.258;2023-08-31T15:11:38;19.20;2.00
1680;DHT22;838;51.794;12.258;2023-08-31T15:14:05;19.20;4.20
1680;DHT22;838;51.794;12.258;2023-08-31T15:16:31;19.40;3.60
1680;DHT22;838;51.794;12.258;2023-08-31T15:18:59;19.20;1.00
1680;DHT22;838;51.794;12.258;2023-08-31T15:21:25;19.00;1.00
1680;DHT22;838;51.794;12.258;2023-08-31T15:23:51;18.90;1.60
1680;DHT22;838;51.794;12.258;2023-08-31T15:26:16;18.90;1.70
1680;DHT22;838;51.794;12.258;2023-08-31T15:28:44;18.90;1.20
1680;DHT22;838;51.794;12.258;2023-08-31T15:31:13;18.80;1.00
1680;DHT22;838;51.794;12.258;2023-08-31T15:33:39;18.70;1.00
1680;DHT22;838;51.794;12.258;2023-08-31T15:36:06;18.40;1.00
1680;DHT22;838;51.794;12.258;2023-08-31T15:38:33;18.20;4.20
1680;DHT22;838;51.794;12.258;2023-08-31T15:41:00;18.10;6.40
1680;DHT22;838;51.794;12.258;2023-08-31T15:43:30;18.00;6.80
1680;DHT22;838;51.794;12.258;2023-08-31T15:45:58;17.80;6.60
1680;DHT22;838;51.794;12.258;2023-08-31T15:48:23;17.70;8.80
1680;DHT22;838;51.794;12.258;2023-08-31T15:50:49;17.80;9.30
1680;DHT22;838;51.794;12.258;2023-08-31T15:53:15;17.90;6.40
1680;DHT22;838;51.794;12.258;2023-08-31T15:55:40;17.90;3.60
1680;DHT22;838;51.794;12.258;2023-08-31T15:58:07;17.90;4.10
1680;DHT22;838;51.794;12.258;2023-08-31T16:00:33;18.00;3.80
1680;DHT22;838;51.794;12.258;2023-08-31T16:02:58;17.90;1.00
1680;DHT22;838;51.794;12.258;2023-08-31T16:05:24;18.00;1.00
1680;DHT22;838;51.794;12.258;2023-08-31T16:07:50;18.20;1.00
1680;DHT22;838;51.794;12.258;2023-08-31T16:10:15;18.30;1.00
1680;DHT22;838;51.794;12.258;2023-08-31T16:12:41;18.70;1.00
1680;DHT22;838;51.794;12.258;2023-08-31T16:15:07;18.80;1.00
1680;DHT22;838;51.794;12.258;2023-08-31T16:17:33;18.80;1.00
1680;DHT22;838;51.794;12.258;2023-08-31T16:19:59;18.80;1.00
1680;DHT22;838;51.794;12.258;2023-08-31T16:22:27;19.10;1.00